createdAt,value
2019-03-13T00:00:11.965Z,24.59
2019-03-13T00:01:11.971Z,24.60
2019-03-13T00:02:11.966Z,24.66
2019-03-13T00:03:11.943Z,24.60
2019-03-13T00:04:11.945Z,24.60
2019-03-13T00:05:13.740Z,24.63
2019-03-13T00:06:11.965Z,24.60
2019-03-13T00:07:11.914Z,24.67
2019-03-13T00:08:11.917Z,24.53
2019-03-13T00:09:11.925Z,24.60
2019-03-13T00:10:11.962Z,24.64
2019-03-13T00:11:13.767Z,24.63
2019-03-13T00:12:11.899Z,24.60
2019-03-13T00:13:11.890Z,24.64
2019-03-13T00:14:11.887Z,24.66
2019-03-13T00:15:11.870Z,24.55
2019-03-13T00:16:11.875Z,24.52
2019-03-13T00:17:15.166Z,24.59
2019-03-13T00:18:11.871Z,24.52
2019-03-13T00:19:11.849Z,24.59
2019-03-13T00:20:11.853Z,24.53
2019-03-13T00:21:11.828Z,24.49
2019-03-13T00:22:11.846Z,24.49
2019-03-13T00:23:15.184Z,24.42
2019-03-13T00:24:11.819Z,24.46
2019-03-13T00:25:11.801Z,24.48
2019-03-13T00:26:11.804Z,24.44
2019-03-13T00:27:11.846Z,24.48
2019-03-13T00:28:11.796Z,24.55
2019-03-13T00:29:12.090Z,24.51
2019-03-13T00:30:11.829Z,24.55
2019-03-13T00:31:11.781Z,24.63
2019-03-13T00:32:11.768Z,24.67
2019-03-13T00:33:11.782Z,24.60
2019-03-13T00:34:11.743Z,24.60
2019-03-13T00:35:12.107Z,24.61
2019-03-13T00:36:11.741Z,24.64
2019-03-13T00:37:11.741Z,24.53
2019-03-13T00:38:11.745Z,24.66
2019-03-13T00:39:11.747Z,24.63
2019-03-13T00:40:11.728Z,24.68
2019-03-13T00:41:13.582Z,24.63
2019-03-13T00:42:11.728Z,24.70
2019-03-13T00:43:11.708Z,24.68
2019-03-13T00:44:11.738Z,24.64
2019-03-13T00:45:11.698Z,24.63
2019-03-13T00:46:11.696Z,24.70
2019-03-13T00:47:12.283Z,24.74
2019-03-13T00:48:11.674Z,24.67
2019-03-13T00:49:11.661Z,24.68
2019-03-13T00:50:11.661Z,24.71
2019-03-13T00:51:11.671Z,24.70
2019-03-13T00:52:11.666Z,24.66
2019-03-13T00:53:13.410Z,24.64
2019-03-13T00:54:11.661Z,24.75
2019-03-13T00:55:11.654Z,24.67
2019-03-13T00:56:11.638Z,24.68
2019-03-13T00:57:11.639Z,24.67
2019-03-13T00:58:11.636Z,24.66
2019-03-13T00:59:15.113Z,24.63
2019-03-13T01:00:11.615Z,24.67
2019-03-13T01:01:11.620Z,24.60
2019-03-13T01:02:11.594Z,24.75
2019-03-13T01:03:11.593Z,24.67
2019-03-13T01:04:11.601Z,24.60
2019-03-13T01:05:11.851Z,24.61
2019-03-13T01:06:11.562Z,24.60
2019-03-13T01:07:11.574Z,24.60
2019-03-13T01:08:11.554Z,24.64
2019-03-13T01:09:11.543Z,24.63
2019-03-13T01:10:11.561Z,24.61
2019-03-13T01:11:13.347Z,24.66
2019-03-13T01:12:11.553Z,24.61
2019-03-13T01:13:11.540Z,24.61
2019-03-13T01:14:11.543Z,24.61
2019-03-13T01:15:11.531Z,24.53
2019-03-13T01:16:11.527Z,24.59
2019-03-13T01:17:14.926Z,24.60
2019-03-13T01:18:11.512Z,24.56
2019-03-13T01:19:11.486Z,24.61
2019-03-13T01:20:11.502Z,24.59
2019-03-13T01:21:11.498Z,24.44
2019-03-13T01:22:11.488Z,24.48
2019-03-13T01:23:13.295Z,24.61
2019-03-13T01:24:11.474Z,24.59
2019-03-13T01:25:11.481Z,24.53
2019-03-13T01:26:11.489Z,24.53
2019-03-13T01:27:11.462Z,24.55
2019-03-13T01:28:11.438Z,24.66
2019-03-13T01:29:13.297Z,24.56
2019-03-13T01:30:11.446Z,24.64
2019-03-13T01:31:11.436Z,24.67
2019-03-13T01:32:11.424Z,24.64
2019-03-13T01:33:11.417Z,24.66
2019-03-13T01:34:11.434Z,24.60
2019-03-13T01:35:13.192Z,24.67
2019-03-13T01:36:11.411Z,24.66
2019-03-13T01:37:11.573Z,24.67
2019-03-13T01:38:11.394Z,24.67
2019-03-13T01:39:11.424Z,24.64
2019-03-13T01:40:11.367Z,24.64
2019-03-13T01:41:14.645Z,24.67
2019-03-13T01:42:11.380Z,24.61
2019-03-13T01:43:11.370Z,24.64
2019-03-13T01:44:11.344Z,24.59
2019-03-13T01:45:11.344Z,24.51
2019-03-13T01:46:11.353Z,24.59
2019-03-13T01:47:13.347Z,24.59
2019-03-13T01:48:11.330Z,24.55
2019-03-13T01:49:11.329Z,24.51
2019-03-13T01:50:11.322Z,24.59
2019-03-13T01:51:11.312Z,24.56
2019-03-13T01:52:11.289Z,24.61
2019-03-13T01:53:11.655Z,24.61
2019-03-13T01:54:11.276Z,24.61
2019-03-13T01:55:11.299Z,24.61
2019-03-13T01:56:11.266Z,24.66
2019-03-13T01:57:11.283Z,24.61
2019-03-13T01:58:13.039Z,24.63
2019-03-13T01:59:11.271Z,24.60
2019-03-13T02:00:11.271Z,24.61
2019-03-13T02:01:11.262Z,24.64
2019-03-13T02:02:11.254Z,24.61
2019-03-13T02:03:11.247Z,24.74
2019-03-13T02:04:13.098Z,24.68
2019-03-13T02:05:11.229Z,24.70
2019-03-13T02:06:11.215Z,24.80
2019-03-13T02:07:11.233Z,24.71
2019-03-13T02:08:11.246Z,24.70
2019-03-13T02:09:11.208Z,24.74
2019-03-13T02:10:13.269Z,24.70
2019-03-13T02:11:11.173Z,24.80
2019-03-13T02:12:11.195Z,24.75
2019-03-13T02:13:11.169Z,-40.00
2019-03-13T02:14:11.182Z,-40.00
2019-03-13T02:15:11.176Z,-40.00
2019-03-13T02:16:11.410Z,-40.00
2019-03-13T02:17:11.158Z,24.61
2019-03-13T02:18:11.147Z,24.64
2019-03-13T02:19:11.139Z,24.67
2019-03-13T02:20:11.144Z,24.63
2019-03-13T02:21:12.903Z,24.71
2019-03-13T02:22:11.175Z,24.64
2019-03-13T02:23:11.136Z,24.68
2019-03-13T02:24:11.103Z,24.67
2019-03-13T02:25:11.147Z,24.67
2019-03-13T02:26:11.148Z,24.63
2019-03-13T02:27:14.399Z,24.67
2019-03-13T02:28:11.075Z,24.74
2019-03-13T02:29:11.100Z,24.71
2019-03-13T02:30:11.085Z,24.71
2019-03-13T02:31:11.113Z,-40.00
2019-03-13T02:32:11.071Z,24.67
2019-03-13T02:33:11.313Z,-40.00
2019-03-13T02:34:11.075Z,24.75
2019-03-13T02:35:11.052Z,24.67
2019-03-13T02:36:11.060Z,24.77
2019-03-13T02:37:11.037Z,-40.00
2019-03-13T02:38:11.439Z,24.70
2019-03-13T02:39:11.027Z,-40.00
2019-03-13T02:40:11.049Z,-40.00
2019-03-13T02:41:11.023Z,-40.00
2019-03-13T02:42:11.019Z,-40.00
2019-03-13T02:43:12.745Z,-40.00
2019-03-13T02:44:11.011Z,-40.00
2019-03-13T02:45:11.049Z,-40.00
2019-03-13T02:46:10.974Z,-40.00
2019-03-13T02:47:10.987Z,-40.00
2019-03-13T02:48:10.985Z,-40.00
2019-03-13T02:49:14.284Z,-40.00
2019-03-13T02:50:10.975Z,-40.00
2019-03-13T02:51:10.970Z,-40.00
2019-03-13T02:52:10.947Z,-40.00
2019-03-13T02:53:10.957Z,-40.00
2019-03-13T02:54:10.955Z,-40.00
2019-03-13T02:55:12.702Z,-40.00
2019-03-13T02:56:10.939Z,-40.00
2019-03-13T02:57:10.997Z,-40.00
2019-03-13T02:58:11.014Z,-40.00
2019-03-13T02:59:10.895Z,-40.00
2019-03-13T03:00:10.926Z,-40.00
2019-03-13T03:01:12.791Z,-40.00
2019-03-13T03:02:10.899Z,-40.00
2019-03-13T03:03:10.892Z,-40.00
2019-03-13T03:04:10.932Z,-40.00
2019-03-13T03:05:10.904Z,-40.00
2019-03-13T03:06:10.934Z,-40.00
2019-03-13T03:07:13.003Z,-40.00
2019-03-13T03:08:10.883Z,-40.00
2019-03-13T03:09:10.854Z,-40.00
2019-03-13T03:10:10.849Z,-40.00
2019-03-13T03:11:10.836Z,-40.00
2019-03-13T03:12:10.832Z,-40.00
2019-03-13T03:13:12.630Z,-40.00
2019-03-13T03:14:10.832Z,-40.00
2019-03-13T03:15:10.827Z,-40.00
2019-03-13T03:16:10.824Z,-40.00
2019-03-13T03:17:10.856Z,24.46
2019-03-13T03:18:10.795Z,24.51
2019-03-13T03:19:10.896Z,24.51
2019-03-13T03:20:10.788Z,24.51
2019-03-13T03:21:10.794Z,24.37
2019-03-13T03:22:10.767Z,24.49
2019-03-13T03:23:10.787Z,24.45
2019-03-13T03:24:11.087Z,24.45
2019-03-13T03:25:10.769Z,24.46
2019-03-13T03:26:10.757Z,24.48
2019-03-13T03:27:10.749Z,24.45
2019-03-13T03:28:10.738Z,24.61
2019-03-13T03:29:10.724Z,24.59
2019-03-13T03:30:12.627Z,24.49
2019-03-13T03:31:10.768Z,24.61
2019-03-13T03:32:10.750Z,24.53
2019-03-13T03:33:10.743Z,24.59
2019-03-13T03:34:10.702Z,24.49
2019-03-13T03:35:10.719Z,24.48
2019-03-13T03:36:10.793Z,24.49
2019-03-13T03:37:10.691Z,24.44
2019-03-13T03:38:10.689Z,24.44
2019-03-13T03:39:10.693Z,24.49
2019-03-13T03:40:10.690Z,24.44
2019-03-13T03:41:11.145Z,24.51
2019-03-13T03:42:10.656Z,24.51
2019-03-13T03:43:10.648Z,24.49
2019-03-13T03:44:10.662Z,24.42
2019-03-13T03:45:10.671Z,24.55
2019-03-13T03:46:10.660Z,24.51
2019-03-13T03:47:13.972Z,24.49
2019-03-13T03:48:10.635Z,24.48
2019-03-13T03:49:10.612Z,24.46
2019-03-13T03:50:10.644Z,24.46
2019-03-13T03:51:10.622Z,24.49
2019-03-13T03:52:10.616Z,24.44
2019-03-13T03:53:10.693Z,24.46
2019-03-13T03:54:10.603Z,24.45
2019-03-13T03:55:10.636Z,24.44
2019-03-13T03:56:10.585Z,24.44
2019-03-13T03:57:10.636Z,24.44
2019-03-13T03:58:10.918Z,24.44
2019-03-13T03:59:10.582Z,24.51
2019-03-13T04:00:10.600Z,24.46
2019-03-13T04:01:10.565Z,24.41
2019-03-13T04:02:10.542Z,24.45
2019-03-13T04:03:12.400Z,24.36
2019-03-13T04:04:10.541Z,24.33
2019-03-13T04:05:10.518Z,24.33
2019-03-13T04:06:10.518Z,24.33
2019-03-13T04:07:10.526Z,24.36
2019-03-13T04:08:10.494Z,24.37
2019-03-13T04:09:10.590Z,24.27
2019-03-13T04:10:10.539Z,24.26
2019-03-13T04:11:10.491Z,24.26
2019-03-13T04:12:10.478Z,24.37
2019-03-13T04:13:10.483Z,24.33
2019-03-13T04:14:12.460Z,24.27
2019-03-13T04:15:10.481Z,24.29
2019-03-13T04:16:10.471Z,24.23
2019-03-13T04:17:10.459Z,24.23
2019-03-13T04:18:10.458Z,24.21
2019-03-13T04:19:10.433Z,24.24
2019-03-13T04:20:10.794Z,24.11
2019-03-13T04:21:10.448Z,24.15
2019-03-13T04:22:10.425Z,24.15
2019-03-13T04:23:10.417Z,24.16
2019-03-13T04:24:10.446Z,24.09
2019-03-13T04:25:12.258Z,24.15
2019-03-13T04:26:12.727Z,24.14
2019-03-13T04:27:10.404Z,24.19
2019-03-13T04:28:10.394Z,24.18
2019-03-13T04:29:10.373Z,24.21
2019-03-13T04:30:10.382Z,24.16
2019-03-13T04:31:12.172Z,24.11
2019-03-13T04:32:10.346Z,23.99
2019-03-13T04:33:10.356Z,23.94
2019-03-13T04:34:10.355Z,24.02
2019-03-13T04:35:10.344Z,24.00
2019-03-13T04:36:10.328Z,23.92
2019-03-13T04:37:10.828Z,23.97
2019-03-13T04:38:10.321Z,23.93
2019-03-13T04:39:10.326Z,23.93
2019-03-13T04:40:10.325Z,23.93
2019-03-13T04:41:10.331Z,24.04
2019-03-13T04:42:12.221Z,24.00
2019-03-13T04:43:10.311Z,23.93
2019-03-13T04:44:10.284Z,23.96
2019-03-13T04:45:10.266Z,23.94
2019-03-13T04:46:10.286Z,23.99
2019-03-13T04:47:10.367Z,24.06
2019-03-13T04:48:12.122Z,24.00
2019-03-13T04:49:10.273Z,24.05
2019-03-13T04:50:10.261Z,24.06
2019-03-13T04:51:10.223Z,24.04
2019-03-13T04:52:10.274Z,24.05
2019-03-13T04:53:10.231Z,24.04
2019-03-13T04:54:12.035Z,24.15
2019-03-13T04:55:10.264Z,24.12
2019-03-13T04:56:10.235Z,24.08
2019-03-13T04:57:10.245Z,24.08
2019-03-13T04:58:10.250Z,24.04
2019-03-13T04:59:10.199Z,24.08
2019-03-13T05:00:10.440Z,23.99
2019-03-13T05:01:10.183Z,24.06
2019-03-13T05:02:10.230Z,24.06
2019-03-13T05:03:10.171Z,24.08
2019-03-13T05:04:10.176Z,24.12
2019-03-13T05:05:10.139Z,24.04
2019-03-13T05:06:10.563Z,23.99
2019-03-13T05:07:10.138Z,23.90
2019-03-13T05:08:10.134Z,24.04
2019-03-13T05:09:10.114Z,23.99
2019-03-13T05:10:10.115Z,23.96
2019-03-13T05:11:10.120Z,24.06
2019-03-13T05:12:10.369Z,23.96
2019-03-13T05:13:10.211Z,23.92
2019-03-13T05:14:10.101Z,23.90
2019-03-13T05:15:10.076Z,23.87
2019-03-13T05:16:10.193Z,23.94
2019-03-13T05:17:10.081Z,23.96
2019-03-13T05:18:12.030Z,23.90
2019-03-13T05:19:10.077Z,24.00
2019-03-13T05:20:10.062Z,23.96
2019-03-13T05:21:10.060Z,23.97
2019-03-13T05:22:10.086Z,23.92
2019-03-13T05:23:10.054Z,23.99
2019-03-13T05:24:10.393Z,23.97
2019-03-13T05:25:10.030Z,23.90
2019-03-13T05:26:10.044Z,23.97
2019-03-13T05:27:10.031Z,23.97
2019-03-13T05:28:10.014Z,23.92
2019-03-13T05:29:09.998Z,23.93
2019-03-13T05:30:10.351Z,23.92
2019-03-13T05:31:09.991Z,23.90
2019-03-13T05:32:09.992Z,23.87
2019-03-13T05:33:09.975Z,23.92
2019-03-13T05:34:09.972Z,23.93
2019-03-13T05:35:09.966Z,23.96
2019-03-13T05:36:10.201Z,23.92
2019-03-13T05:37:09.979Z,23.87
2019-03-13T05:38:09.924Z,23.89
2019-03-13T05:39:09.952Z,23.90
2019-03-13T05:40:09.980Z,23.93
2019-03-13T05:41:09.935Z,23.87
2019-03-13T05:42:10.313Z,23.84
2019-03-13T05:43:09.916Z,23.81
2019-03-13T05:44:09.898Z,23.86
2019-03-13T05:45:09.914Z,23.86
2019-03-13T05:46:09.905Z,23.82
2019-03-13T05:47:09.895Z,23.89
2019-03-13T05:48:11.843Z,23.86
2019-03-13T05:49:09.861Z,23.90
2019-03-13T05:50:09.887Z,23.79
2019-03-13T05:51:09.903Z,23.84
2019-03-13T05:52:09.855Z,23.84
2019-03-13T05:53:09.830Z,23.69
2019-03-13T05:54:10.142Z,23.69
2019-03-13T05:55:09.849Z,23.74
2019-03-13T05:56:09.836Z,23.71
2019-03-13T05:57:09.802Z,23.74
2019-03-13T05:58:09.819Z,23.71
2019-03-13T05:59:09.812Z,23.75
2019-03-13T06:00:11.658Z,23.77
2019-03-13T06:01:09.799Z,23.75
2019-03-13T06:02:09.790Z,23.77
2019-03-13T06:03:09.803Z,23.74
2019-03-13T06:04:09.792Z,23.81
2019-03-13T06:05:09.782Z,23.79
2019-03-13T06:06:11.570Z,23.92
2019-03-13T06:07:09.765Z,23.79
2019-03-13T06:08:09.765Z,23.86
2019-03-13T06:09:09.758Z,23.86
2019-03-13T06:10:09.786Z,23.86
2019-03-13T06:11:09.735Z,23.84
2019-03-13T06:12:10.129Z,23.92
2019-03-13T06:13:09.713Z,23.86
2019-03-13T06:14:09.704Z,23.96
2019-03-13T06:15:09.739Z,23.94
2019-03-13T06:16:09.714Z,23.96
2019-03-13T06:17:09.679Z,23.93
2019-03-13T06:18:11.601Z,24.02
2019-03-13T06:19:09.767Z,23.99
2019-03-13T06:20:10.704Z,23.99
2019-03-13T06:21:09.675Z,23.97
2019-03-13T06:22:09.675Z,24.04
2019-03-13T06:23:09.669Z,24.08
2019-03-13T06:24:10.153Z,24.02
2019-03-13T06:25:09.644Z,24.05
2019-03-13T06:26:09.695Z,24.00
2019-03-13T06:27:09.638Z,24.04
2019-03-13T06:28:09.635Z,24.00
2019-03-13T06:29:09.658Z,24.02
2019-03-13T06:30:09.865Z,23.96
2019-03-13T06:31:09.603Z,23.99
2019-03-13T06:32:09.583Z,23.86
2019-03-13T06:33:09.595Z,23.89
2019-03-13T06:34:11.437Z,23.89
2019-03-13T06:35:09.837Z,23.86
2019-03-13T06:36:09.570Z,23.89
2019-03-13T06:37:09.569Z,23.84
2019-03-13T06:38:09.566Z,23.90
2019-03-13T06:39:09.548Z,23.75
2019-03-13T06:40:09.929Z,23.79
2019-03-13T06:41:09.543Z,23.71
2019-03-13T06:42:09.548Z,23.75
2019-03-13T06:43:09.533Z,23.68
2019-03-13T06:44:09.531Z,23.78
2019-03-13T06:45:12.983Z,23.71
2019-03-13T06:46:09.528Z,23.72
2019-03-13T06:47:09.484Z,23.69
2019-03-13T06:48:09.494Z,23.64
2019-03-13T06:49:09.505Z,23.74
2019-03-13T06:50:09.499Z,23.64
2019-03-13T06:51:09.634Z,23.74
2019-03-13T06:52:09.478Z,23.74
2019-03-13T06:53:09.483Z,23.68
2019-03-13T06:54:09.456Z,23.78
2019-03-13T06:55:09.438Z,23.84
2019-03-13T06:56:09.742Z,23.89
2019-03-13T06:57:09.437Z,23.72
2019-03-13T06:58:09.439Z,23.72
2019-03-13T06:59:09.419Z,23.75
2019-03-13T07:00:09.413Z,23.71
2019-03-13T07:01:09.414Z,23.71
2019-03-13T07:02:09.641Z,23.69
2019-03-13T07:03:09.423Z,23.60
2019-03-13T07:04:09.395Z,23.72
2019-03-13T07:05:09.389Z,23.64
2019-03-13T07:06:09.416Z,23.69
2019-03-13T07:07:09.410Z,23.60
2019-03-13T07:08:11.270Z,23.69
2019-03-13T07:09:09.374Z,23.72
2019-03-13T07:10:09.366Z,23.68
2019-03-13T07:11:09.389Z,23.69
2019-03-13T07:12:09.339Z,23.57
2019-03-13T07:13:09.336Z,23.62
2019-03-13T07:14:09.720Z,23.60
2019-03-13T07:15:09.302Z,23.74
2019-03-13T07:16:09.323Z,23.71
2019-03-13T07:17:09.294Z,23.74
2019-03-13T07:18:09.319Z,23.75
2019-03-13T07:19:09.299Z,23.75
2019-03-13T07:20:12.607Z,23.77
2019-03-13T07:21:09.299Z,23.77
2019-03-13T07:22:09.311Z,23.72
2019-03-13T07:23:09.283Z,23.69
2019-03-13T07:24:09.256Z,23.74
2019-03-13T07:25:09.270Z,23.60
2019-03-13T07:26:09.647Z,23.60
2019-03-13T07:27:09.258Z,23.63
2019-03-13T07:28:09.235Z,23.62
2019-03-13T07:29:12.398Z,23.52
2019-03-13T07:30:09.428Z,23.41
2019-03-13T07:31:09.216Z,23.31
2019-03-13T07:32:09.836Z,23.35
2019-03-13T07:33:10.434Z,23.35
2019-03-13T07:34:09.207Z,23.25
2019-03-13T07:35:09.206Z,23.29
2019-03-13T07:36:09.205Z,23.35
2019-03-13T07:37:09.185Z,23.25
2019-03-13T07:38:11.025Z,23.22
2019-03-13T07:39:09.212Z,23.31
2019-03-13T07:40:09.167Z,23.38
2019-03-13T07:41:09.154Z,23.26
2019-03-13T07:42:09.191Z,23.26
2019-03-13T07:43:09.183Z,23.26
2019-03-13T07:44:09.365Z,23.37
2019-03-13T07:45:09.167Z,23.34
2019-03-13T07:46:09.129Z,23.37
2019-03-13T07:47:09.120Z,23.34
2019-03-13T07:48:09.088Z,23.26
2019-03-13T07:49:10.852Z,23.26
2019-03-13T07:50:09.129Z,23.32
2019-03-13T07:51:09.123Z,23.34
2019-03-13T07:52:09.122Z,23.35
2019-03-13T07:53:09.114Z,23.29
2019-03-13T07:54:09.114Z,23.12
2019-03-13T07:55:09.402Z,23.22
2019-03-13T07:56:09.065Z,23.15
2019-03-13T07:57:09.058Z,23.16
2019-03-13T07:58:09.031Z,23.09
2019-03-13T07:59:09.040Z,23.14
2019-03-13T08:00:09.061Z,23.15
2019-03-13T08:01:09.463Z,23.12
2019-03-13T08:02:09.017Z,23.15
2019-03-13T08:03:08.998Z,23.15
2019-03-13T08:04:09.036Z,23.18
2019-03-13T08:05:09.031Z,23.18
2019-03-13T08:06:08.991Z,23.15
2019-03-13T08:07:09.199Z,23.26
2019-03-13T08:08:08.965Z,23.26
2019-03-13T08:09:08.954Z,23.18
2019-03-13T08:10:08.951Z,23.15
2019-03-13T08:11:08.930Z,23.14
2019-03-13T08:12:08.935Z,23.09
2019-03-13T08:13:09.174Z,23.15
2019-03-13T08:14:08.920Z,23.21
2019-03-13T08:15:08.951Z,23.18
2019-03-13T08:16:08.888Z,23.15
2019-03-13T08:17:08.915Z,23.16
2019-03-13T08:18:08.906Z,23.25
2019-03-13T08:19:10.794Z,23.35
2019-03-13T08:20:08.889Z,23.18
2019-03-13T08:21:08.916Z,23.21
2019-03-13T08:22:08.872Z,23.19
2019-03-13T08:23:08.866Z,23.14
2019-03-13T08:24:08.861Z,23.14
2019-03-13T08:25:09.097Z,23.11
2019-03-13T08:26:08.846Z,23.16
2019-03-13T08:27:08.847Z,23.11
2019-03-13T08:28:08.811Z,23.15
2019-03-13T08:29:08.929Z,23.14
2019-03-13T08:30:08.858Z,23.09
2019-03-13T08:31:09.097Z,23.03
2019-03-13T08:32:08.817Z,22.99
2019-03-13T08:33:08.786Z,23.03
2019-03-13T08:34:08.785Z,23.00
2019-03-13T08:35:08.789Z,23.06
2019-03-13T08:36:09.171Z,22.97
2019-03-13T08:37:08.749Z,22.99
2019-03-13T08:38:08.769Z,23.07
2019-03-13T08:39:08.729Z,22.97
2019-03-13T08:40:08.743Z,22.99
2019-03-13T08:41:08.736Z,23.06
2019-03-13T08:42:09.054Z,23.03
2019-03-13T08:43:08.734Z,23.07
2019-03-13T08:44:08.706Z,23.06
2019-03-13T08:45:08.692Z,23.01
2019-03-13T08:46:08.712Z,23.06
2019-03-13T08:47:12.497Z,23.06
2019-03-13T08:48:08.682Z,23.03
2019-03-13T08:49:08.686Z,22.91
2019-03-13T08:50:08.664Z,22.86
2019-03-13T08:51:08.665Z,22.89
2019-03-13T08:52:08.645Z,22.93
2019-03-13T08:53:08.902Z,22.96
2019-03-13T08:54:08.659Z,22.79
2019-03-13T08:55:08.651Z,22.75
2019-03-13T08:56:08.638Z,22.88
2019-03-13T08:57:08.621Z,22.82
2019-03-13T08:58:08.630Z,22.93
2019-03-13T08:59:09.057Z,22.88
2019-03-13T09:00:08.615Z,22.86
2019-03-13T09:01:08.585Z,22.81
2019-03-13T09:02:08.598Z,22.82
2019-03-13T09:03:08.594Z,22.84
2019-03-13T09:04:08.558Z,22.75
2019-03-13T09:05:10.425Z,22.79
2019-03-13T09:06:08.645Z,22.84
2019-03-13T09:07:08.568Z,22.81
2019-03-13T09:08:08.561Z,22.84
2019-03-13T09:09:08.541Z,22.89
2019-03-13T09:10:08.533Z,22.82
2019-03-13T09:11:08.870Z,22.72
2019-03-13T09:12:08.521Z,22.86
2019-03-13T09:13:08.520Z,22.96
2019-03-13T09:14:08.508Z,22.88
2019-03-13T09:15:08.503Z,22.96
2019-03-13T09:16:08.493Z,22.93
2019-03-13T09:17:11.938Z,22.82
2019-03-13T09:18:08.466Z,22.93
2019-03-13T09:19:08.461Z,22.89
2019-03-13T09:20:08.440Z,22.86
2019-03-13T09:21:08.459Z,22.86
2019-03-13T09:22:08.433Z,22.91
2019-03-13T09:23:08.837Z,22.94
2019-03-13T09:24:08.416Z,22.96
2019-03-13T09:25:12.250Z,22.94
2019-03-13T09:26:08.402Z,22.89
2019-03-13T09:27:08.405Z,22.89
2019-03-13T09:28:08.438Z,22.93
2019-03-13T09:29:08.651Z,22.99
2019-03-13T09:30:08.416Z,22.91
2019-03-13T09:31:08.378Z,22.96
2019-03-13T09:32:08.393Z,22.88
2019-03-13T09:33:08.364Z,22.85
2019-03-13T09:34:08.892Z,22.94
2019-03-13T09:35:08.393Z,22.97
2019-03-13T09:36:08.342Z,22.86
2019-03-13T09:37:08.319Z,22.96
2019-03-13T09:38:08.380Z,22.96
2019-03-13T09:39:09.589Z,22.94
2019-03-13T09:40:10.129Z,22.94
2019-03-13T09:41:08.304Z,23.00
2019-03-13T09:42:08.307Z,23.06
2019-03-13T09:43:08.299Z,23.04
2019-03-13T09:44:08.298Z,-40.00
2019-03-13T09:45:08.279Z,-40.00
2019-03-13T09:46:10.276Z,-40.00
2019-03-13T09:47:08.270Z,-40.00
2019-03-13T09:48:08.286Z,-40.00
2019-03-13T09:49:08.289Z,-40.00
2019-03-13T09:50:08.288Z,-40.00
2019-03-13T09:51:08.239Z,-40.00
2019-03-13T09:52:10.120Z,-40.00
2019-03-13T09:53:08.212Z,-40.00
2019-03-13T09:54:08.254Z,-40.00
2019-03-13T09:55:08.183Z,-40.00
2019-03-13T09:56:08.188Z,-40.00
2019-03-13T09:57:08.196Z,-40.00
2019-03-13T09:58:08.468Z,-40.00
2019-03-13T09:59:08.217Z,-40.00
2019-03-13T10:00:08.216Z,-40.00
2019-03-13T10:01:08.148Z,23.12
2019-03-13T10:02:08.149Z,22.94
2019-03-13T10:03:08.499Z,23.09
2019-03-13T10:04:08.153Z,23.06
2019-03-13T10:05:08.147Z,23.12
2019-03-13T10:06:08.114Z,23.16
2019-03-13T10:07:08.110Z,23.22
2019-03-13T10:08:08.153Z,23.21
2019-03-13T10:09:08.589Z,23.16
2019-03-13T10:10:08.096Z,23.21
2019-03-13T10:11:08.069Z,23.14
2019-03-13T10:12:08.084Z,23.12
2019-03-13T10:13:08.057Z,23.14
2019-03-13T10:14:08.071Z,23.14
2019-03-13T10:15:09.879Z,23.22
2019-03-13T10:16:08.067Z,23.15
2019-03-13T10:17:10.919Z,23.15
2019-03-13T10:18:08.021Z,23.16
2019-03-13T10:19:08.036Z,23.16
2019-03-13T10:20:08.026Z,23.11
2019-03-13T10:21:09.863Z,23.14
2019-03-13T10:22:08.011Z,23.14
2019-03-13T10:23:07.997Z,23.19
2019-03-13T10:24:07.991Z,23.22
2019-03-13T10:25:18.401Z,23.25
2019-03-13T10:26:14.243Z,23.32
2019-03-13T10:27:08.221Z,23.34
2019-03-13T10:28:07.987Z,23.42
2019-03-13T10:29:07.952Z,23.29
2019-03-13T10:30:07.954Z,23.41
2019-03-13T10:31:07.945Z,23.38
2019-03-13T10:32:07.942Z,23.38
2019-03-13T10:33:08.267Z,23.38
2019-03-13T10:34:07.929Z,23.49
2019-03-13T10:35:07.908Z,23.50
2019-03-13T10:36:07.900Z,23.54
2019-03-13T10:37:07.912Z,23.63
2019-03-13T10:38:13.665Z,23.68
2019-03-13T10:39:09.682Z,23.64
2019-03-13T10:40:07.871Z,23.71
2019-03-13T10:41:07.910Z,23.71
2019-03-13T10:42:07.866Z,23.75
2019-03-13T10:43:07.861Z,23.75
2019-03-13T10:44:07.867Z,23.74
2019-03-13T10:45:08.105Z,-40.00
2019-03-13T10:46:07.823Z,-40.00
2019-03-13T10:47:07.839Z,-40.00
2019-03-13T10:48:07.878Z,-40.00
2019-03-13T10:49:07.824Z,-40.00
2019-03-13T10:50:07.803Z,-40.00
2019-03-13T10:51:08.040Z,-40.00
2019-03-13T10:52:07.781Z,-40.00
2019-03-13T10:53:07.794Z,-40.00
2019-03-13T10:54:07.781Z,24.02
2019-03-13T10:55:07.782Z,-40.00
2019-03-13T10:56:07.765Z,-40.00
2019-03-13T10:57:09.536Z,-40.00
2019-03-13T10:58:07.760Z,24.15
2019-03-13T10:59:07.755Z,24.00
2019-03-13T11:00:07.750Z,24.09
2019-03-13T11:01:07.782Z,24.12
2019-03-13T11:02:07.731Z,24.14
2019-03-13T11:03:09.636Z,24.18
2019-03-13T11:04:07.716Z,24.21
2019-03-13T11:05:07.727Z,24.27
2019-03-13T11:06:07.702Z,24.31
2019-03-13T11:07:07.710Z,-40.00
2019-03-13T11:08:07.701Z,-40.00
2019-03-13T11:09:11.011Z,-40.00
2019-03-13T11:10:07.694Z,-40.00
2019-03-13T11:11:07.674Z,-40.00
2019-03-13T11:12:07.674Z,-40.00
2019-03-13T11:13:07.662Z,-40.00
2019-03-13T11:14:15.603Z,-40.00
2019-03-13T11:15:09.498Z,-40.00
2019-03-13T11:16:07.641Z,-40.00
2019-03-13T11:17:07.640Z,-40.00
2019-03-13T11:18:07.641Z,-40.00
2019-03-13T11:19:07.629Z,-40.00
2019-03-13T11:20:07.627Z,-40.00
2019-03-13T11:21:07.972Z,-40.00
2019-03-13T11:22:07.612Z,24.79
2019-03-13T11:23:07.633Z,24.83
2019-03-13T11:24:07.590Z,24.77
2019-03-13T11:25:07.604Z,24.64
2019-03-13T11:26:08.101Z,24.66
2019-03-13T11:27:07.565Z,24.67
2019-03-13T11:28:07.577Z,24.61
2019-03-13T11:29:07.559Z,24.64
2019-03-13T11:30:07.560Z,24.63
2019-03-13T11:31:09.467Z,24.61
2019-03-13T11:32:07.557Z,24.66
2019-03-13T11:33:07.526Z,24.66
2019-03-13T11:34:07.538Z,24.66
2019-03-13T11:35:07.551Z,24.67
2019-03-13T11:36:07.537Z,24.66
2019-03-13T11:37:07.773Z,24.70
2019-03-13T11:38:07.546Z,24.79
2019-03-13T11:39:07.513Z,24.68
2019-03-13T11:40:07.495Z,24.71
2019-03-13T11:41:07.481Z,24.71
2019-03-13T11:42:07.490Z,24.70
2019-03-13T11:43:07.478Z,24.67
2019-03-13T11:44:07.519Z,24.74
2019-03-13T11:45:07.475Z,24.77
2019-03-13T11:46:07.445Z,24.79
2019-03-13T11:47:07.466Z,24.71
2019-03-13T11:48:07.467Z,24.84
2019-03-13T11:49:07.689Z,24.90
2019-03-13T11:50:07.438Z,24.92
2019-03-13T11:51:07.441Z,24.92
2019-03-13T11:52:07.421Z,24.98
2019-03-13T11:53:07.427Z,25.07
2019-03-13T11:54:07.411Z,25.04
2019-03-13T11:55:07.520Z,25.09
2019-03-13T11:56:07.388Z,24.99
2019-03-13T11:57:07.593Z,25.01
2019-03-13T11:58:09.355Z,25.01
2019-03-13T11:59:07.392Z,25.14
2019-03-13T12:00:07.382Z,25.01
2019-03-13T12:01:07.381Z,25.08
2019-03-13T12:02:07.393Z,25.20
2019-03-13T12:03:07.410Z,25.16
2019-03-13T12:04:07.364Z,25.20
2019-03-13T12:05:07.356Z,25.26
2019-03-13T12:06:07.360Z,25.27
2019-03-13T12:07:07.351Z,25.27
2019-03-13T12:08:07.376Z,25.41
2019-03-13T12:09:07.338Z,25.31
2019-03-13T12:10:07.314Z,25.29
2019-03-13T12:11:07.337Z,25.23
2019-03-13T12:12:07.303Z,25.30
2019-03-13T12:13:10.260Z,25.41
2019-03-13T12:14:07.308Z,25.49
2019-03-13T12:15:07.286Z,25.56
2019-03-13T12:16:07.337Z,25.63
2019-03-13T12:17:07.268Z,25.71
2019-03-13T12:18:07.319Z,25.72
2019-03-13T12:19:07.251Z,25.63
2019-03-13T12:20:07.307Z,25.57
2019-03-13T12:21:07.257Z,25.64
2019-03-13T12:22:07.251Z,25.66
2019-03-13T12:23:07.289Z,25.66
2019-03-13T12:24:07.256Z,25.59
2019-03-13T12:25:07.216Z,25.63
2019-03-13T12:26:07.245Z,25.64
2019-03-13T12:27:07.219Z,25.66
2019-03-13T12:28:07.222Z,25.67
2019-03-13T12:29:07.222Z,25.74
2019-03-13T12:30:07.204Z,25.71
2019-03-13T12:31:07.252Z,25.64
2019-03-13T12:32:07.199Z,25.69
2019-03-13T12:33:07.191Z,25.78
2019-03-13T12:34:07.234Z,25.86
2019-03-13T12:35:07.162Z,26.00
2019-03-13T12:36:07.190Z,25.96
2019-03-13T12:37:07.173Z,25.98
2019-03-13T12:38:07.168Z,26.06
2019-03-13T12:39:07.162Z,26.00
2019-03-13T12:40:07.143Z,26.16
2019-03-13T12:41:07.157Z,26.32
2019-03-13T12:42:07.161Z,26.56
2019-03-13T12:43:07.139Z,26.66
2019-03-13T12:44:07.144Z,26.71
2019-03-13T12:45:07.144Z,26.97
2019-03-13T12:46:07.120Z,27.20
2019-03-13T12:47:07.424Z,27.42
2019-03-13T12:48:16.137Z,27.27
2019-03-13T12:49:07.126Z,27.48